Time;durP1;ratioP1;P1;durP2;ratioP2;P2;SDS_P1;SDS_P2;PMS_P1;PMS_P2;Temp;Humidity;BMP_temperature;BMP_pressure;BME280_temperature;BME280_humidity;BME280_pressure;Samples;Min_cycle;Max_cycle;Signal;HPM_P1;HPM_P2
2021/05/29 09:18:57;;;;;;;;;6.00;4.75;;;;;19.92;50.69;101880.00;4991912;28;45434;-75
2021/05/29 09:21:33;;;;;;;;;9.50;5.50;;;;;20.10;50.70;101883.75;4986641;28;45561;-76
2021/05/29 09:24:00;;;;;;;;;11.50;8.75;;;;;20.29;50.95;101883.06;4999547;28;46231;-77
2021/05/29 09:26:53;;;;;;;;;7.50;7.00;;;;;20.52;50.48;101879.53;4985286;28;45814;-76
2021/05/29 09:29:23;;;;;;;;;9.00;7.25;;;;;20.71;49.72;101879.63;4990139;27;46639;-76
2021/05/29 09:31:55;;;;;;;;;10.00;6.75;;;;;20.88;48.98;101875.47;4987622;28;45583;-76
2021/05/29 09:34:56;;;;;;;;;5.75;4.00;;;;;21.10;48.43;101878.06;4982722;28;45439;-77
2021/05/29 09:37:24;;;;;;;;;6.00;6.00;;;;;21.26;48.67;101884.47;4978997;28;45655;-77
2021/05/29 09:39:51;;;;;;;;;6.25;6.25;;;;;21.41;48.73;101877.66;4979437;28;45666;-78
2021/05/29 09:42:17;;;;;;;;;8.00;7.00;;;;;21.55;48.42;101874.44;4984344;28;45561;-75
2021/05/29 09:44:43;;;;;;;;;4.75;4.75;;;;;21.66;48.17;101874.81;4977582;28;45543;-74
2021/05/29 09:47:13;;;;;;;;;7.75;6.00;;;;;21.79;48.15;101869.84;4979324;28;45518;-77
2021/05/29 09:49:52;;;;;;;;;8.75;6.00;;;;;21.91;48.15;101879.00;4987467;28;45795;-75
2021/05/29 09:52:21;;;;;;;;;10.25;5.00;;;;;22.00;47.67;101872.47;4975403;28;45548;-76
2021/05/29 09:54:51;;;;;;;;;6.50;6.50;;;;;22.08;47.54;101866.81;4986371;28;45674;-76
2021/05/29 09:57:16;;;;;;;;;5.00;5.00;;;;;22.16;47.35;101872.63;5000005;27;45769;-73
2021/05/29 10:00:01;;;;;;;;;11.75;8.50;;;;;22.25;46.89;101875.72;4980290;28;45373;-74
2021/05/29 10:02:27;;;;;;;;;7.50;6.75;;;;;22.29;46.76;101872.88;4975357;28;45419;-72
2021/05/29 10:04:55;;;;;;;;;5.50;5.50;;;;;22.36;46.78;101876.09;4977061;28;45923;-73
2021/05/29 10:07:20;;;;;;;;;5.00;4.75;;;;;22.41;46.31;101887.28;4972036;28;45693;-74
2021/05/29 10:09:46;;;;;;;;;4.75;4.50;;;;;22.47;46.23;101874.72;4974604;28;45626;-66
2021/05/29 10:12:12;;;;;;;;;7.00;6.00;;;;;22.47;45.94;101880.88;4970080;28;45562;-64
2021/05/29 10:14:37;;;;;;;;;7.00;6.00;;;;;22.51;45.86;101878.91;4980669;27;45648;-64
2021/05/29 10:17:04;;;;;;;;;4.50;4.50;;;;;22.50;46.20;101875.41;4967283;28;45523;-64
2021/05/29 10:19:30;;;;;;;;;6.75;6.50;;;;;22.54;45.77;101881.41;4977791;28;46177;-64
2021/05/29 10:21:56;;;;;;;;;5.00;5.00;;;;;22.56;45.74;101865.47;4976370;28;45799;-63
2021/05/29 10:24:23;;;;;;;;;6.50;6.50;;;;;22.59;45.62;101875.91;4974528;28;45458;-63
2021/05/29 10:26:50;;;;;;;;;4.75;4.75;;;;;22.61;45.45;101885.47;4974391;28;46033;-63
2021/05/29 10:29:16;;;;;;;;;5.25;5.25;;;;;22.62;45.72;101884.56;4966853;28;45499;-63
2021/05/29 10:31:42;;;;;;;;;4.50;4.50;;;;;22.64;45.70;101885.34;4967340;28;45797;-63
2021/05/29 10:34:08;;;;;;;;;4.25;4.25;;;;;22.65;45.11;101884.41;4945097;28;45514;-63
2021/05/29 10:36:52;;;;;;;;;3.00;3.00;;;;;22.68;45.20;101888.69;4968862;28;45555;-63
2021/05/29 10:39:22;;;;;;;;;5.00;5.00;;;;;22.67;45.09;101879.06;4971372;28;46393;-63
2021/05/29 10:41:55;;;;;;;;;5.25;4.00;;;;;22.71;44.96;101885.91;4966824;28;45484;-63
2021/05/29 10:44:27;;;;;;;;;4.75;4.75;;;;;22.71;44.88;101887.69;4971365;28;45454;-63
2021/05/29 10:47:08;;;;;;;;;4.25;4.00;;;;;22.72;44.91;101886.75;4968497;28;45737;-63
2021/05/29 10:50:03;;;;;;;;;4.00;4.00;;;;;22.73;44.81;101889.31;4974402;28;46224;-64
2021/05/29 10:52:34;;;;;;;;;5.00;5.00;;;;;22.74;44.85;101885.72;4967541;28;46071;-64
2021/05/29 10:55:09;;;;;;;;;5.00;3.75;;;;;22.76;44.83;101890.97;4973185;28;45378;-63
2021/05/29 10:57:56;;;;;;;;;5.00;4.00;;;;;22.74;44.85;101887.53;4980038;28;45604;-63
2021/05/29 11:00:41;;;;;;;;;3.75;3.75;;;;;22.76;44.65;101890.97;4968740;28;45917;-63
2021/05/29 11:03:26;;;;;;;;;3.75;2.50;;;;;22.76;44.64;101890.97;4974024;28;45784;-63
2021/05/29 11:05:55;;;;;;;;;5.00;3.00;;;;;22.75;44.66;101884.81;4966351;28;45879;-63
2021/05/29 11:08:57;;;;;;;;;5.25;3.75;;;;;22.76;44.92;101894.44;4968193;28;45511;-63
2021/05/29 11:11:39;;;;;;;;;4.25;4.25;;;;;22.76;44.50;101889.16;4969482;28;46202;-63
2021/05/29 11:14:24;;;;;;;;;4.50;4.50;;;;;22.75;44.43;101884.81;4973913;27;45416;-62
2021/05/29 11:16:53;;;;;;;;;3.25;3.25;;;;;22.75;44.50;101887.47;4968950;28;45413;-63
2021/05/29 11:19:24;;;;;;;;;4.50;4.25;;;;;22.75;44.46;101887.47;4986309;28;45789;-63
2021/05/29 11:22:09;;;;;;;;;6.25;5.00;;;;;22.76;44.38;101883.88;4982563;27;45517;-63
2021/05/29 11:24:56;;;;;;;;;4.25;4.25;;;;;22.77;44.34;101890.03;4979368;28;45457;-63
2021/05/29 11:27:35;;;;;;;;;4.25;4.25;;;;;22.78;44.46;101889.09;4991559;28;45528;-63
2021/05/29 11:30:06;;;;;;;;;4.00;3.00;;;;;22.77;44.56;101885.59;4970678;28;45633;-63
2021/05/29 11:33:01;;;;;;;;;4.00;4.00;;;;;22.77;44.31;101888.25;4992269;28;45666;-63
2021/05/29 11:35:36;;;;;;;;;5.25;3.25;;;;;22.77;44.11;101885.59;4990837;28;45540;-63
2021/05/29 11:38:23;;;;;;;;;3.25;3.25;;;;;22.78;44.25;101881.16;4993171;27;45565;-63
2021/05/29 11:40:54;;;;;;;;;3.00;3.00;;;;;22.79;44.30;101888.16;4978557;28;45596;-63
2021/05/29 11:43:57;;;;;;;;;4.50;2.75;;;;;22.78;44.22;101883.78;4987469;28;45956;-62
2021/05/29 11:46:27;;;;;;;;;5.00;4.00;;;;;22.78;44.48;101883.78;5001954;28;45927;-63
2021/05/29 11:49:04;;;;;;;;;4.75;4.25;;;;;22.77;44.16;101877.69;4982916;28;45512;-63
2021/05/29 11:51:37;;;;;;;;;4.50;3.25;;;;;22.78;44.15;101875.88;4985474;27;45700;-63
2021/05/29 11:54:21;;;;;;;;;4.00;4.00;;;;;22.78;44.28;101878.50;4979837;28;46377;-63
2021/05/29 11:56:51;;;;;;;;;4.00;4.00;;;;;22.78;44.11;101881.16;4997066;27;45806;-63
2021/05/29 11:59:20;;;;;;;;;4.50;4.00;;;;;22.76;44.02;101872.47;4992528;28;45820;-63
2021/05/29 12:01:48;;;;;;;;;3.75;3.75;;;;;22.74;44.05;101872.50;4993737;28;45607;-62
2021/05/29 12:04:17;;;;;;;;;3.25;3.25;;;;;22.79;44.07;101872.31;4981102;28;45701;-62
2021/05/29 12:06:48;;;;;;;;;3.00;3.00;;;;;22.80;43.82;101867.88;4966479;28;45812;-62
2021/05/29 12:09:14;;;;;;;;;4.50;4.25;;;;;22.79;43.96;101864.38;4987396;28;45694;-62
2021/05/29 12:11:53;;;;;;;;;4.00;4.00;;;;;22.80;43.86;101859.97;4984874;28;45642;-62
2021/05/29 12:14:20;;;;;;;;;3.75;3.75;;;;;22.81;43.96;101870.44;4982218;28;45793;-62
2021/05/29 12:16:54;;;;;;;;;3.75;3.00;;;;;22.81;44.07;101866.94;4986444;28;45663;-63
2021/05/29 12:19:39;;;;;;;;;5.75;4.25;;;;;22.82;43.75;101861.56;4983925;28;45357;-62
2021/05/29 12:22:09;;;;;;;;;2.00;2.00;;;;;22.82;43.90;101868.63;4984599;28;45476;-62
2021/05/29 12:24:39;;;;;;;;;4.00;4.00;;;;;22.82;44.08;101858.06;4966616;28;45707;-62
2021/05/29 12:27:05;;;;;;;;;2.50;2.50;;;;;22.84;44.25;101864.13;4975939;28;45695;-62
2021/05/29 12:29:31;;;;;;;;;10.25;4.75;;;;;22.83;43.87;101871.22;4978695;28;45503;-62
2021/05/29 12:31:59;;;;;;;;;3.75;3.75;;;;;22.84;43.88;101869.44;4994967;28;45496;-63
2021/05/29 12:34:27;;;;;;;;;4.00;4.00;;;;;22.82;43.82;101858.06;4993741;28;46214;-62
2021/05/29 12:37:13;;;;;;;;;5.75;4.00;;;;;22.85;43.73;101871.16;4979273;27;45430;-62
2021/05/29 12:39:49;;;;;;;;;4.00;4.00;;;;;22.85;43.44;101871.16;4992378;27;45456;-63
2021/05/29 12:42:39;;;;;;;;;5.50;4.00;;;;;22.85;43.79;101865.88;4988457;28;45616;-63
2021/05/29 12:45:26;;;;;;;;;4.00;4.00;;;;;22.82;43.34;101868.63;4975949;28;45518;-63
2021/05/29 12:48:01;;;;;;;;;6.75;5.00;;;;;22.86;43.68;101880.78;5007849;28;45589;-62
2021/05/29 12:50:29;;;;;;;;;5.00;5.00;;;;;22.85;43.66;101871.16;4993334;28;45886;-63
2021/05/29 12:53:13;;;;;;;;;6.00;6.00;;;;;22.86;43.79;101879.00;4975759;28;45429;-63
2021/05/29 12:55:39;;;;;;;;;1.00;1.00;;;;;22.87;43.48;101864.00;4975600;28;45761;-63
2021/05/29 12:58:18;;;;;;;;;4.50;4.50;;;;;22.86;43.63;101864.91;5001921;27;45418;-63
2021/05/29 13:01:53;;;;;;;;;4.25;4.25;;;;;22.87;43.69;101864.00;4992845;28;45458;-63
2021/05/29 13:09:41;;;;;;;;;5.50;4.75;;;;;22.89;43.51;101872.69;4985125;28;47326;-63
2021/05/29 13:12:14;;;;;;;;;5.75;4.00;;;;;22.88;43.62;101865.69;4980474;27;45509;-63
2021/05/29 13:14:41;;;;;;;;;5.50;5.50;;;;;22.89;43.47;101862.97;4985151;28;45634;-63
2021/05/29 13:17:07;;;;;;;;;3.25;3.25;;;;;22.90;43.43;101863.84;4981157;27;45765;-63
2021/05/29 13:19:45;;;;;;;;;6.50;5.00;;;;;22.90;43.59;101869.13;5030342;28;46753;-63
2021/05/29 13:22:21;;;;;;;;;5.00;5.00;;;;;22.91;43.52;101870.81;4975220;28;45738;-63
2021/05/29 13:24:59;;;;;;;;;7.00;4.00;;;;;22.93;43.47;101863.69;4984746;28;45693;-63
2021/05/29 13:27:30;;;;;;;;;5.75;5.25;;;;;22.94;43.40;101867.19;4995905;28;46854;-63
2021/05/29 13:29:57;;;;;;;;;4.75;4.00;;;;;22.95;43.49;101866.25;5008719;28;45534;-62
2021/05/29 13:32:23;;;;;;;;;4.50;4.50;;;;;22.94;43.00;101869.84;4997186;28;45631;-63
2021/05/29 13:34:50;;;;;;;;;5.00;5.00;;;;;22.96;42.98;101868.81;4980447;28;45548;-62
2021/05/29 13:37:16;;;;;;;;;5.50;5.00;;;;;22.94;43.07;101870.66;4982238;28;45810;-62
2021/05/29 13:39:45;;;;;;;;;4.00;4.00;;;;;22.96;43.19;101866.16;4978050;27;45887;-62
2021/05/29 13:42:14;;;;;;;;;7.00;4.25;;;;;22.97;43.13;101874.97;4987063;28;45550;-62
2021/05/29 13:44:44;;;;;;;;;5.25;4.25;;;;;22.98;42.95;101871.38;4978082;28;45569;-62
2021/05/29 13:47:10;;;;;;;;;4.00;4.00;;;;;22.97;42.81;101867.88;4982966;28;46482;-63
2021/05/29 13:49:36;;;;;;;;;5.75;4.75;;;;;22.98;43.29;101874.00;4982300;28;45622;-62
2021/05/29 13:52:03;;;;;;;;;5.50;4.00;;;;;22.99;43.17;101878.38;4985406;28;45443;-63
2021/05/29 13:54:29;;;;;;;;;4.00;4.00;;;;;22.99;43.04;101870.44;4973334;28;45796;-62
2021/05/29 13:56:55;;;;;;;;;4.00;4.00;;;;;23.01;42.96;101876.53;4982127;27;46049;-63
2021/05/29 13:59:20;;;;;;;;;4.00;4.00;;;;;23.01;42.66;101873.88;4976396;28;45427;-63
2021/05/29 14:01:46;;;;;;;;;4.75;4.00;;;;;23.03;43.13;101872.00;4977149;27;46055;-63
2021/05/29 14:04:12;;;;;;;;;5.00;3.75;;;;;23.05;42.66;101880.69;4980034;28;45832;-63
2021/05/29 14:06:39;;;;;;;;;4.25;4.25;;;;;23.05;42.89;101871.94;5008759;28;46124;-63
2021/05/29 14:09:06;;;;;;;;;6.00;4.50;;;;;23.06;42.86;101865.69;5007833;27;45671;-63
2021/05/29 14:11:35;;;;;;;;;4.25;4.00;;;;;23.06;42.70;101877.13;4986086;28;45589;-63
2021/05/29 14:14:00;;;;;;;;;5.00;5.00;;;;;23.06;42.71;101874.50;4987757;28;45498;-63
2021/05/29 14:16:26;;;;;;;;;4.75;4.75;;;;;23.06;42.57;101869.22;4984098;28;45718;-63
2021/05/29 14:18:52;;;;;;;;;4.00;4.00;;;;;23.06;42.57;101877.13;4978637;28;45491;-63
2021/05/29 14:21:17;;;;;;;;;3.50;3.50;;;;;23.05;42.59;101869.28;4994684;28;45663;-63
2021/05/29 14:23:44;;;;;;;;;5.50;5.00;;;;;23.09;42.83;101865.53;4987093;28;45632;-63
2021/05/29 14:26:09;;;;;;;;;6.00;5.25;;;;;23.09;43.00;101865.53;4973849;28;47649;-62
2021/05/29 14:28:35;;;;;;;;;6.50;5.00;;;;;23.07;42.74;101870.91;4985987;28;45826;-62
2021/05/29 14:31:02;;;;;;;;;4.00;4.00;;;;;23.09;42.98;101863.75;4977462;28;45532;-63
2021/05/29 14:33:28;;;;;;;;;5.50;4.75;;;;;23.10;42.65;101873.41;4961979;27;45783;-63
2021/05/29 14:35:53;;;;;;;;;4.25;4.00;;;;;23.10;42.37;101877.84;4983465;28;45611;-62
2021/05/29 14:38:19;;;;;;;;;4.00;3.75;;;;;23.09;42.86;101874.34;4977023;28;45552;-62
2021/05/29 14:40:44;;;;;;;;;6.25;4.00;;;;;23.12;42.42;101878.63;5002329;28;45431;-62
2021/05/29 14:43:10;;;;;;;;;4.25;4.25;;;;;23.11;42.71;101875.13;4998073;28;45698;-62
2021/05/29 14:45:35;;;;;;;;;5.00;4.00;;;;;23.13;42.68;101878.53;4980407;28;46067;-62
2021/05/29 14:48:02;;;;;;;;;4.75;4.00;;;;;23.11;42.65;101872.47;4988597;28;45920;-62
2021/05/29 14:50:28;;;;;;;;;4.00;4.00;;;;;23.13;42.61;101875.91;4984860;28;45432;-62
2021/05/29 14:52:54;;;;;;;;;4.75;3.00;;;;;23.13;42.80;101873.25;4981336;27;45750;-62
2021/05/29 14:55:19;;;;;;;;;3.75;3.75;;;;;23.15;42.65;101873.16;4983670;28;46407;-62
2021/05/29 14:57:45;;;;;;;;;4.75;4.75;;;;;23.16;42.55;101879.31;4989528;27;45426;-62
2021/05/29 15:00:11;;;;;;;;;9.25;5.00;;;;;23.16;43.22;101871.38;4992456;28;45599;-78
2021/05/29 15:02:37;;;;;;;;;6.00;3.25;;;;;23.19;43.11;101881.81;4993292;28;45745;-64
2021/05/29 15:05:03;;;;;;;;;3.75;3.75;;;;;23.20;43.30;101878.22;4979311;28;46652;-91
2021/05/29 15:07:28;;;;;;;;;6.50;5.00;;;;;23.23;43.17;101873.63;4993116;28;45570;-80
2021/05/29 15:09:55;;;;;;;;;8.25;7.00;;;;;23.28;43.65;101872.53;4993706;28;45794;-81
2021/05/29 15:12:22;;;;;;;;;9.25;5.00;;;;;23.29;43.49;101869.81;4992366;28;45539;-74
2021/05/29 15:14:51;;;;;;;;;7.50;4.50;;;;;23.34;43.17;101878.34;4994466;27;45496;-73
2021/05/29 15:17:16;;;;;;;;;7.50;5.00;;;;;23.39;43.94;101882.56;4986772;27;45831;-73
2021/05/29 15:19:42;;;;;;;;;5.25;4.75;;;;;23.41;43.83;101870.09;4987145;28;45653;-72
2021/05/29 15:22:08;;;;;;;;;4.50;4.50;;;;;23.44;43.84;101873.47;4967692;28;45612;-72
2021/05/29 15:24:33;;;;;;;;;7.00;4.50;;;;;23.47;43.76;101872.44;4988239;28;45714;-72
2021/05/29 15:27:04;;;;;;;;;4.50;4.00;;;;;23.51;43.40;101866.06;4988073;27;45480;-73
2021/05/29 15:29:39;;;;;;;;;7.25;4.75;;;;;23.50;43.30;101874.97;4996660;28;45804;-77
2021/05/29 15:32:08;;;;;;;;;6.50;5.00;;;;;23.52;43.32;101865.13;4968832;28;45411;-73
2021/05/29 15:34:33;;;;;;;;;5.00;4.00;;;;;23.53;43.18;101864.19;4977168;28;47190;-74
2021/05/29 15:36:59;;;;;;;;;4.50;3.50;;;;;23.54;43.24;101873.00;4985733;28;45500;-74
2021/05/29 15:39:24;;;;;;;;;3.50;3.00;;;;;23.56;43.17;101871.09;4992568;27;45518;-74
2021/05/29 15:41:50;;;;;;;;;5.50;5.50;;;;;23.57;43.10;101876.34;4993127;28;45466;-74
2021/05/29 15:44:15;;;;;;;;;6.25;3.75;;;;;23.58;43.09;101871.88;4973012;28;45796;-74
2021/05/29 15:46:41;;;;;;;;;8.50;4.00;;;;;23.61;42.56;101869.06;4969258;28;45835;-74
2021/05/29 15:49:06;;;;;;;;;5.50;4.50;;;;;23.60;42.74;101860.28;4946514;28;45673;-73
2021/05/29 15:51:32;;;;;;;;;5.00;3.75;;;;;23.63;42.75;101866.34;4986329;28;45801;-74
2021/05/29 15:53:57;;;;;;;;;4.50;4.00;;;;;23.64;42.65;101866.28;4990183;28;46089;-73
2021/05/29 15:56:24;;;;;;;;;4.25;3.75;;;;;23.66;42.72;101867.06;4988226;28;45871;-73
2021/05/29 15:58:50;;;;;;;;;6.00;4.75;;;;;23.65;42.39;101860.03;5026441;27;45989;-72
2021/05/29 16:01:16;;;;;;;;;6.50;4.50;;;;;23.66;42.40;101868.84;5002912;28;45446;-73
2021/05/29 16:03:42;;;;;;;;;8.00;3.00;;;;;23.67;42.46;101859.94;5034243;28;46132;-74
2021/05/29 16:06:09;;;;;;;;;7.75;3.75;;;;;23.67;42.33;101862.59;5031170;28;45519;-73
2021/05/29 16:08:35;;;;;;;;;3.50;3.25;;;;;23.69;42.38;101858.06;4965844;28;45442;-73
2021/05/29 16:11:00;;;;;;;;;7.00;5.00;;;;;23.69;42.33;101864.22;4985229;28;45537;-72
2021/05/29 16:13:27;;;;;;;;;8.00;5.00;;;;;23.68;42.59;101859.84;4965551;28;46129;-72
2021/05/29 16:15:52;;;;;;;;;3.50;3.50;;;;;23.68;42.04;101859.84;4977545;28;45530;-72
2021/05/29 16:18:18;;;;;;;;;3.50;2.50;;;;;23.69;42.08;101863.38;4984979;28;45511;-73
2021/05/29 16:20:43;;;;;;;;;4.25;4.25;;;;;23.71;42.11;101866.78;4961871;28;45704;-72
2021/05/29 16:23:09;;;;;;;;;5.25;4.00;;;;;23.71;42.39;101859.72;4984920;28;46442;-73
2021/05/29 16:25:36;;;;;;;;;5.00;3.50;;;;;23.70;42.13;101859.81;4969882;28;45774;-72
2021/05/29 16:28:02;;;;;;;;;7.00;4.75;;;;;23.73;41.94;101856.97;4990249;28;45777;-72
2021/05/29 16:30:27;;;;;;;;;7.50;3.25;;;;;23.74;42.55;101863.97;4980618;28;45442;-72
2021/05/29 16:33:00;;;;;;;;;7.50;4.00;;;;;23.73;42.18;101852.56;4976477;28;45759;-73
2021/05/29 16:35:32;;;;;;;;;4.50;4.00;;;;;23.74;42.14;101853.38;4970755;28;45812;-72
2021/05/29 16:37:58;;;;;;;;;4.00;4.00;;;;;23.75;41.93;101854.25;4968698;28;45993;-72
2021/05/29 16:40:24;;;;;;;;;6.00;5.25;;;;;23.75;41.85;101846.31;4979322;28;45530;-72
2021/05/29 16:42:49;;;;;;;;;4.00;4.00;;;;;23.76;41.87;101845.34;4968878;28;46359;-72
2021/05/29 16:45:16;;;;;;;;;4.25;4.25;;;;;23.75;41.63;101852.47;4986344;28;45698;-72
2021/05/29 16:47:41;;;;;;;;;7.50;4.75;;;;;23.75;41.78;101841.88;4970104;28;45471;-72
2021/05/29 16:50:08;;;;;;;;;6.00;5.00;;;;;23.75;41.87;101849.81;5011452;28;45916;-72
2021/05/29 16:52:33;;;;;;;;;7.50;5.75;;;;;23.77;41.85;101853.25;4959256;28;45746;-72
2021/05/29 16:54:59;;;;;;;;;5.75;5.00;;;;;23.78;41.74;101844.34;4961843;28;45531;-72
2021/05/29 16:57:24;;;;;;;;;7.25;5.50;;;;;23.77;42.00;101842.66;5039783;27;45937;-72
2021/05/29 16:59:53;;;;;;;;;9.00;6.00;;;;;23.79;41.95;101842.56;4991209;28;45519;-72
2021/05/29 17:02:20;;;;;;;;;6.00;4.25;;;;;23.77;41.49;101840.00;4990618;28;45818;-72
2021/05/29 17:04:45;;;;;;;;;4.75;3.25;;;;;23.79;41.63;101834.63;4990384;28;45792;-72
2021/05/29 17:07:11;;;;;;;;;4.75;3.25;;;;;23.79;42.07;101832.81;4978885;28;45447;-72
2021/05/29 17:09:36;;;;;;;;;3.25;3.25;;;;;23.78;41.95;101831.09;4976656;28;45762;-72
2021/05/29 17:12:04;;;;;;;;;5.00;4.00;;;;;23.79;42.26;101824.88;4965445;28;46439;-72
2021/05/29 17:14:30;;;;;;;;;5.25;5.25;;;;;23.81;42.30;101838.88;4989135;28;45486;-73
2021/05/29 17:16:55;;;;;;;;;6.25;4.00;;;;;23.81;42.19;101832.75;4988663;28;45690;-72
2021/05/29 17:19:21;;;;;;;;;6.00;4.50;;;;;23.81;41.88;101827.47;4990591;28;45767;-72
2021/05/29 17:21:46;;;;;;;;;4.00;4.00;;;;;23.81;42.23;101828.28;4974184;28;45458;-73
2021/05/29 17:24:12;;;;;;;;;5.50;5.50;;;;;23.82;41.66;101827.38;4988803;28;46212;-72
2021/05/29 17:26:37;;;;;;;;;5.50;5.50;;;;;23.81;41.93;101825.63;4987408;28;45521;-72
2021/05/29 17:29:03;;;;;;;;;5.50;4.25;;;;;23.83;42.44;101830.84;4989753;28;45847;-72
2021/05/29 17:31:29;;;;;;;;;5.50;3.75;;;;;23.82;42.05;101823.84;4985243;28;46118;-72
2021/05/29 17:33:54;;;;;;;;;4.75;4.00;;;;;23.84;42.56;101844.00;4979021;28;45510;-72
2021/05/29 17:36:20;;;;;;;;;6.25;3.25;;;;;23.83;42.12;101833.50;4976310;28;45584;-72
2021/05/29 17:38:45;;;;;;;;;4.25;4.00;;;;;23.84;42.56;101840.50;4982742;28;45498;-72
2021/05/29 17:41:11;;;;;;;;;5.75;5.25;;;;;23.85;42.62;101842.22;4969683;28;45891;-72
2021/05/29 17:43:37;;;;;;;;;5.50;4.25;;;;;23.84;42.72;101835.22;4978501;28;45765;-72
2021/05/29 17:46:03;;;;;;;;;4.00;4.00;;;;;23.84;42.63;101835.22;4978950;28;45452;-72
2021/05/29 17:48:28;;;;;;;;;6.00;4.00;;;;;23.84;42.55;101832.56;4988791;27;45734;-72
2021/05/29 17:50:54;;;;;;;;;5.00;4.00;;;;;23.84;42.17;101833.41;4977606;28;45896;-72
2021/05/29 17:53:21;;;;;;;;;4.00;3.00;;;;;23.85;42.21;101839.56;4980463;28;45789;-72
2021/05/29 17:55:47;;;;;;;;;7.00;4.50;;;;;23.86;42.64;101849.22;4972753;28;45748;-72
2021/05/29 18:00:50;;;;;;;;;5.25;3.00;;;;;23.87;42.81;101842.13;4992460;28;45821;-72
2021/05/29 18:03:16;;;;;;;;;5.00;4.75;;;;;23.87;42.15;101850.06;4994203;28;45478;-72
2021/05/29 18:05:41;;;;;;;;;4.00;3.75;;;;;23.88;42.15;101857.09;4993781;28;45698;-72
2021/05/29 18:08:07;;;;;;;;;4.00;4.00;;;;;23.87;42.21;101858.88;4984858;28;45854;-73
2021/05/29 18:10:33;;;;;;;;;4.00;3.00;;;;;23.86;42.35;101849.22;4971058;28;46411;-73
2021/05/29 18:12:59;;;;;;;;;3.50;3.00;;;;;23.87;42.57;101847.41;4985305;27;45870;-72
2021/05/29 18:15:25;;;;;;;;;4.50;4.50;;;;;23.86;42.60;101846.59;4976505;28;45527;-73
2021/05/29 18:17:51;;;;;;;;;3.75;3.75;;;;;23.85;42.45;101843.06;4989003;28;45784;-72
2021/05/29 18:20:16;;;;;;;;;3.50;3.50;;;;;23.85;42.69;101843.06;4974821;28;46373;-73
2021/05/29 18:22:42;;;;;;;;;3.50;3.00;;;;;23.85;42.70;101836.91;4974974;28;45742;-75
2021/05/29 18:25:08;;;;;;;;;3.00;3.00;;;;;23.85;42.64;101853.66;4975231;28;45549;-75
2021/05/29 18:27:34;;;;;;;;;4.75;4.00;;;;;23.87;42.61;101843.00;4972520;28;46036;-73
2021/05/29 18:30:00;;;;;;;;;4.00;2.50;;;;;23.87;42.54;101843.00;4989159;27;46168;-75
2021/05/29 18:32:25;;;;;;;;;4.50;4.00;;;;;23.87;42.49;101856.22;4996303;28;45643;-71
2021/05/29 18:34:51;;;;;;;;;6.00;4.00;;;;;23.85;43.13;101861.59;4993560;28;45652;-72
2021/05/29 18:39:51;;;;;;;;;4.50;3.75;;;;;23.86;42.30;101857.19;4980652;28;46046;-74
2021/05/29 18:42:16;;;;;;;;;4.00;4.00;;;;;23.87;42.63;101864.16;4985823;28;45653;-72
2021/05/29 18:44:42;;;;;;;;;5.00;3.00;;;;;23.89;42.44;101866.72;4972870;28;45788;-73
2021/05/29 18:47:10;;;;;;;;;3.00;2.75;;;;;23.87;42.46;101861.53;4985612;28;45460;-73
2021/05/29 18:49:36;;;;;;;;;5.50;4.00;;;;;23.88;42.64;101865.88;4991994;27;46264;-73
2021/05/29 18:52:02;;;;;;;;;6.00;5.25;;;;;23.87;42.86;101856.22;4981269;28;45567;-72
2021/05/29 18:54:28;;;;;;;;;6.25;5.00;;;;;23.89;42.98;101867.59;4985112;27;45655;-73
2021/05/29 18:56:54;;;;;;;;;8.00;4.75;;;;;23.89;43.34;101861.44;4997473;27;46478;-72
2021/05/29 19:02:24;;;;;;;;;15.00;7.00;;;;;23.91;45.77;101864.84;4969827;28;45587;-72
2021/05/29 19:05:05;;;;;;;;;9.50;7.25;;;;;23.93;47.15;101869.16;4972085;28;45716;-75
2021/05/29 19:09:57;;;;;;;;;9.75;8.50;;;;;23.98;49.32;101863.59;4978302;28;45911;-74
2021/05/29 19:12:22;;;;;;;;;9.25;6.75;;;;;24.00;48.59;101864.34;4971170;28;45810;-74
2021/05/29 19:15:06;;;;;;;;;9.50;7.25;;;;;24.01;47.18;101862.56;4970495;28;45463;-74
2021/05/29 19:17:38;;;;;;;;;8.50;6.00;;;;;23.99;45.71;101861.78;4978643;28;45621;-75
2021/05/29 19:20:05;;;;;;;;;6.50;6.50;;;;;23.99;44.96;101861.78;4976653;28;46006;-75
2021/05/29 19:22:42;;;;;;;;;6.25;6.00;;;;;23.99;43.23;101867.94;4993355;28;45461;-74
2021/05/29 19:28:08;;;;;;;;;8.75;8.75;;;;;23.96;42.41;101863.66;4988515;28;45654;-74
2021/05/29 19:30:44;;;;;;;;;8.00;6.25;;;;;23.97;42.04;101875.13;4990361;28;45907;-74
2021/05/29 19:41:20;;;;;;;;;9.50;6.50;;;;;23.90;41.47;101879.88;5019277;28;46148;-73
2021/05/29 20:13:40;;;;;;;;;8.25;8.25;;;;;23.68;39.49;101914.59;4992353;28;46195;-73
2021/05/29 20:16:21;;;;;;;;;10.00;8.75;;;;;23.67;39.50;101904.94;4983375;28;45743;-73
2021/05/29 20:24:36;;;;;;;;;8.75;7.25;;;;;23.64;39.58;101923.63;4966223;28;45555;-73
2021/05/29 20:27:03;;;;;;;;;9.25;8.75;;;;;23.60;39.01;101922.94;4977024;27;45710;-73
2021/05/29 20:29:29;;;;;;;;;9.50;7.75;;;;;23.58;39.41;101925.69;4975930;28;45518;-73
2021/05/29 20:31:54;;;;;;;;;11.00;8.00;;;;;23.56;39.08;101924.91;4983367;28;45520;-73
2021/05/29 20:36:46;;;;;;;;;7.00;7.00;;;;;23.53;39.61;101933.00;4957645;28;45773;-73
2021/05/29 20:39:14;;;;;;;;;9.00;9.00;;;;;23.53;39.40;101932.13;4971857;28;45465;-74
2021/05/29 20:41:41;;;;;;;;;10.00;8.75;;;;;23.53;40.00;101937.44;4983312;28;46936;-74
2021/05/29 20:44:10;;;;;;;;;8.75;7.75;;;;;23.51;40.29;101934.88;4973574;28;45551;-74
2021/05/29 20:46:35;;;;;;;;;8.00;8.00;;;;;23.53;40.54;101935.66;4988255;28;46477;-74
2021/05/29 20:49:01;;;;;;;;;9.00;9.00;;;;;23.52;40.36;101944.50;4990344;28;45528;-74
2021/05/29 20:51:26;;;;;;;;;11.75;10.00;;;;;23.53;40.65;101946.25;4981938;28;45524;-74
2021/05/29 20:53:52;;;;;;;;;11.50;10.50;;;;;23.55;41.02;101947.00;4974611;28;46165;-74
2021/05/29 20:56:17;;;;;;;;;12.25;9.00;;;;;23.54;40.54;101941.81;4974512;28;45707;-74
2021/05/29 20:58:43;;;;;;;;;10.50;10.25;;;;;23.55;40.31;101948.78;4980738;27;45575;-74
2021/05/29 21:01:09;;;;;;;;;11.50;9.00;;;;;23.54;40.52;101947.94;4963873;28;45931;-74
2021/05/29 21:03:35;;;;;;;;;15.25;12.25;;;;;23.54;40.58;101950.56;4978545;28;46051;-74
2021/05/29 21:06:00;;;;;;;;;10.00;10.00;;;;;23.55;40.58;101946.16;4976178;28;45947;-74
2021/05/29 21:08:26;;;;;;;;;9.25;9.00;;;;;23.54;40.52;101952.41;4975193;28;45559;-74
2021/05/29 21:10:52;;;;;;;;;10.00;10.00;;;;;23.53;41.15;101956.81;4974027;28;45547;-74
2021/05/29 21:13:19;;;;;;;;;14.75;13.25;;;;;23.53;41.10;101954.19;4980468;28;45532;-74
2021/05/29 21:15:49;;;;;;;;;13.50;10.75;;;;;23.53;41.29;101964.75;4953494;28;45835;-74
2021/05/29 21:21:10;;;;;;;;;12.75;10.50;;;;;23.54;41.12;101961.16;4974380;28;45436;-74
2021/05/29 21:23:43;;;;;;;;;13.25;10.50;;;;;23.52;40.60;101960.38;4974180;28;45737;-74
2021/05/29 21:26:09;;;;;;;;;12.25;11.00;;;;;23.53;40.72;101966.53;4975586;28;45688;-74
2021/05/29 21:28:41;;;;;;;;;11.00;11.00;;;;;23.52;41.03;101965.69;5004514;27;46009;-75
2021/05/29 21:31:07;;;;;;;;;15.25;13.75;;;;;23.51;41.11;101963.13;4990037;28;46375;-74
2021/05/29 21:33:35;;;;;;;;;11.25;10.75;;;;;23.49;40.94;101965.84;4979239;28;45507;-74
2021/05/29 21:36:01;;;;;;;;;10.75;10.75;;;;;23.51;41.12;101966.63;4976266;28;45618;-74
2021/05/29 21:38:27;;;;;;;;;13.00;11.50;;;;;23.51;40.83;101973.69;4971458;28;45508;-74
2021/05/29 21:40:52;;;;;;;;;14.50;13.75;;;;;23.50;41.48;101970.22;4982392;28;45479;-74
2021/05/29 21:43:18;;;;;;;;;11.75;10.75;;;;;23.49;40.87;101974.66;4976313;27;45978;-74
2021/05/29 21:50:54;;;;;;;;;12.25;12.25;;;;;23.48;41.21;101982.66;4980630;27;46005;-62
2021/05/29 21:53:19;;;;;;;;;13.00;11.50;;;;;23.46;41.49;101976.59;4967029;28;48676;-62
2021/05/29 21:55:45;;;;;;;;;12.00;11.00;;;;;23.43;41.63;101980.22;4976528;28;45589;-62
2021/05/29 21:58:10;;;;;;;;;12.00;12.00;;;;;23.42;41.55;101980.31;5019717;27;45651;-63
2021/05/29 22:03:09;;;;;;;;;11.50;11.00;;;;;23.39;41.47;101977.81;4982916;28;46149;-62
2021/05/29 22:05:34;;;;;;;;;14.75;12.25;;;;;23.36;41.37;101976.16;4955018;28;45525;-63
2021/05/29 22:08:00;;;;;;;;;11.75;10.25;;;;;23.36;41.90;101976.16;5020665;27;45847;-63